createdAt,value
2019-06-26T00:02:02.538Z,25.99
2019-06-26T00:04:31.404Z,25.90
2019-06-26T00:07:00.358Z,25.90
2019-06-26T00:09:29.975Z,25.85
2019-06-26T00:11:58.810Z,25.82
2019-06-26T00:14:27.728Z,25.82
2019-06-26T00:16:56.675Z,25.80
2019-06-26T00:19:25.530Z,25.72
2019-06-26T00:21:54.481Z,25.69
2019-06-26T00:24:23.348Z,25.64
2019-06-26T00:26:52.255Z,25.97
2019-06-26T00:29:21.185Z,26.06
2019-06-26T00:31:50.068Z,25.81
2019-06-26T00:34:18.983Z,25.73
2019-06-26T00:36:47.919Z,25.68
2019-06-26T00:39:17.227Z,25.64
2019-06-26T00:41:46.128Z,25.42
2019-06-26T00:44:15.146Z,25.33
2019-06-26T00:46:44.519Z,25.28
2019-06-26T00:49:13.543Z,25.19
2019-06-26T00:51:42.431Z,25.55
2019-06-26T00:54:11.383Z,25.32
2019-06-26T00:56:40.386Z,25.58
2019-06-26T00:59:09.414Z,25.22
2019-06-26T01:01:38.348Z,25.12
2019-06-26T01:04:10.500Z,25.11
2019-06-26T01:06:45.393Z,25.36
2019-06-26T01:09:14.878Z,25.06
2019-06-26T01:11:43.851Z,25.04
2019-06-26T01:14:12.792Z,24.96
2019-06-26T01:16:41.711Z,24.91
2019-06-26T01:19:10.665Z,24.79
2019-06-26T01:21:39.585Z,24.68
2019-06-26T01:24:08.531Z,24.67
2019-06-26T01:26:37.442Z,24.66
2019-06-26T01:29:06.318Z,24.61
2019-06-26T01:31:35.226Z,24.58
2019-06-26T01:34:04.150Z,24.43
2019-06-26T01:36:33.307Z,24.34
2019-06-26T01:39:02.230Z,24.31
2019-06-26T01:41:31.167Z,24.23
2019-06-26T01:44:13.679Z,24.26
2019-06-26T01:46:28.983Z,24.14
2019-06-26T01:48:57.954Z,24.16
2019-06-26T01:51:26.802Z,24.17
2019-06-26T01:53:55.697Z,24.03
2019-06-26T01:56:24.597Z,24.04
2019-06-26T01:58:53.502Z,23.97
2019-06-26T02:01:22.433Z,23.89
2019-06-26T02:03:51.363Z,23.83
2019-06-26T02:06:20.380Z,23.77
2019-06-26T02:08:49.389Z,23.81
2019-06-26T02:11:18.285Z,23.74
2019-06-26T02:13:47.204Z,23.76
2019-06-26T02:16:16.088Z,23.70
2019-06-26T02:18:47.690Z,23.70
2019-06-26T02:21:16.628Z,23.70
2019-06-26T02:23:45.566Z,23.65
2019-06-26T02:26:14.516Z,23.58
2019-06-26T02:28:43.472Z,23.53
2019-06-26T02:31:12.404Z,23.48
2019-06-26T02:33:41.317Z,23.43
2019-06-26T02:36:10.304Z,23.38
2019-06-26T02:38:39.201Z,23.32
2019-06-26T02:41:08.527Z,23.29
2019-06-26T02:43:37.826Z,23.27
2019-06-26T02:46:07.118Z,23.22
2019-06-26T02:48:36.010Z,23.21
2019-06-26T02:51:05.445Z,23.15
2019-06-26T02:53:34.408Z,23.07
2019-06-26T02:56:03.520Z,23.08
2019-06-26T02:58:32.410Z,23.00
2019-06-26T03:01:01.351Z,23.02
2019-06-26T03:03:30.299Z,22.98
2019-06-26T03:05:59.255Z,22.98
2019-06-26T03:08:28.249Z,22.93
2019-06-26T03:10:57.137Z,23.24
2019-06-26T03:13:26.060Z,22.89
2019-06-26T03:15:55.017Z,22.79
2019-06-26T03:18:23.926Z,23.09
2019-06-26T03:20:53.603Z,22.76
2019-06-26T03:23:22.561Z,22.70
2019-06-26T03:25:51.513Z,22.65
2019-06-26T03:28:20.421Z,22.63
2019-06-26T03:30:49.360Z,22.57
2019-06-26T03:33:18.281Z,22.53
2019-06-26T03:35:47.192Z,22.45
2019-06-26T03:38:16.137Z,22.45
2019-06-26T03:40:45.034Z,22.39
2019-06-26T03:43:14.002Z,22.40
2019-06-26T03:45:42.901Z,22.39
2019-06-26T03:48:11.800Z,22.28
2019-06-26T03:50:40.768Z,22.25
2019-06-26T03:53:09.762Z,22.19
2019-06-26T03:55:38.678Z,22.19
2019-06-26T03:58:07.713Z,22.19
2019-06-26T04:00:38.937Z,22.05
2019-06-26T04:03:08.057Z,22.18
2019-06-26T04:05:36.989Z,22.12
2019-06-26T04:08:06.043Z,22.07
2019-06-26T04:10:34.981Z,22.05
2019-06-26T04:13:03.886Z,22.01
2019-06-26T04:15:42.157Z,22.04
2019-06-26T04:18:01.744Z,22.14
2019-06-26T04:20:30.647Z,22.21
2019-06-26T04:22:59.552Z,22.22
2019-06-26T04:25:28.476Z,22.27
2019-06-26T04:27:57.364Z,22.33
2019-06-26T04:30:26.331Z,22.44
2019-06-26T04:32:55.217Z,22.43
2019-06-26T04:35:24.138Z,22.36
2019-06-26T04:37:53.069Z,22.37
2019-06-26T04:40:21.972Z,22.30
2019-06-26T04:42:50.909Z,22.34
2019-06-26T04:45:19.826Z,22.72
2019-06-26T04:47:48.759Z,22.61
2019-06-26T04:50:17.681Z,22.60
2019-06-26T04:52:46.577Z,22.63
2019-06-26T04:55:15.510Z,22.54
2019-06-26T04:57:44.423Z,22.48
2019-06-26T05:00:13.335Z,22.64
2019-06-26T05:02:42.246Z,22.56
2019-06-26T05:05:11.223Z,22.43
2019-06-26T05:07:40.107Z,22.48
2019-06-26T05:10:09.186Z,22.49
2019-06-26T05:12:38.106Z,22.48
2019-06-26T05:15:07.330Z,22.55
2019-06-26T05:17:36.453Z,22.64
2019-06-26T05:20:05.868Z,22.75
2019-06-26T05:22:34.756Z,22.76
2019-06-26T05:25:03.763Z,22.77
2019-06-26T05:27:32.662Z,22.78
2019-06-26T05:30:01.583Z,22.85
2019-06-26T05:32:30.501Z,22.77
2019-06-26T05:34:59.439Z,22.77
2019-06-26T05:37:28.391Z,22.81
2019-06-26T05:39:57.308Z,22.76
2019-06-26T05:42:26.195Z,22.63
2019-06-26T05:44:55.373Z,22.66
2019-06-26T05:47:24.411Z,22.68
2019-06-26T05:49:53.307Z,22.67
2019-06-26T05:52:22.229Z,22.72
2019-06-26T05:54:51.202Z,22.83
2019-06-26T05:57:20.227Z,22.92
2019-06-26T05:59:49.103Z,23.07
2019-06-26T06:02:18.039Z,23.02
2019-06-26T06:04:46.945Z,23.02
2019-06-26T06:07:15.855Z,23.11
2019-06-26T06:09:44.750Z,23.09
2019-06-26T06:12:13.667Z,23.04
2019-06-26T06:14:42.585Z,23.06
2019-06-26T06:17:11.632Z,23.01
2019-06-26T06:19:40.527Z,23.06
2019-06-26T06:22:09.485Z,23.07
2019-06-26T06:24:38.394Z,22.92
2019-06-26T06:27:07.384Z,23.35
2019-06-26T06:29:36.287Z,23.10
2019-06-26T06:32:05.327Z,23.18
2019-06-26T06:34:34.173Z,23.12
2019-06-26T06:37:03.143Z,23.19
2019-06-26T06:39:32.084Z,23.26
2019-06-26T06:42:00.966Z,23.65
2019-06-26T06:44:29.870Z,23.44
2019-06-26T06:47:03.794Z,23.31
2019-06-26T06:49:27.652Z,23.26
2019-06-26T06:51:56.635Z,23.17
2019-06-26T06:54:25.499Z,23.17
2019-06-26T06:56:54.391Z,23.28
2019-06-26T06:59:23.290Z,23.26
2019-06-26T07:01:52.192Z,23.27
2019-06-26T07:04:21.081Z,23.39
2019-06-26T07:06:49.987Z,23.42
2019-06-26T07:09:18.881Z,23.44
2019-06-26T07:11:47.800Z,23.51
2019-06-26T07:14:16.702Z,23.60
2019-06-26T07:16:45.655Z,24.01
2019-06-26T07:19:14.532Z,23.66
2019-06-26T07:21:43.450Z,23.59
2019-06-26T07:24:12.338Z,23.62
2019-06-26T07:26:41.245Z,23.75
2019-06-26T07:29:10.233Z,23.99
2019-06-26T07:31:39.127Z,24.17
2019-06-26T07:34:08.134Z,24.23
2019-06-26T07:36:37.039Z,24.36
2019-06-26T07:39:06.392Z,24.58
2019-06-26T07:41:35.294Z,25.19
2019-06-26T07:44:04.238Z,25.27
2019-06-26T07:46:33.127Z,25.50
2019-06-26T07:49:02.556Z,25.77
2019-06-26T07:51:31.433Z,25.79
2019-06-26T07:54:00.351Z,26.03
2019-06-26T07:56:29.237Z,26.26
2019-06-26T07:58:58.127Z,26.40
2019-06-26T08:01:27.017Z,26.82
2019-06-26T08:03:55.935Z,27.28
2019-06-26T08:06:24.832Z,27.34
2019-06-26T08:08:53.759Z,27.68
2019-06-26T08:11:22.665Z,27.65
2019-06-26T08:13:51.592Z,27.87
2019-06-26T08:16:20.512Z,28.20
2019-06-26T08:18:49.426Z,28.06
2019-06-26T08:21:18.523Z,28.15
2019-06-26T08:23:47.406Z,27.84
2019-06-26T08:26:16.327Z,27.91
2019-06-26T08:28:45.224Z,28.14
2019-06-26T08:31:14.131Z,27.99
2019-06-26T08:33:43.049Z,28.03
2019-06-26T08:36:11.964Z,28.10
2019-06-26T08:38:40.853Z,28.34
2019-06-26T08:41:09.813Z,28.65
2019-06-26T08:43:38.725Z,29.46
2019-06-26T08:46:07.703Z,31.35
2019-06-26T08:48:40.126Z,32.25
2019-06-26T08:51:05.524Z,33.24
2019-06-26T08:53:34.426Z,33.71
2019-06-26T08:56:03.449Z,33.86
2019-06-26T08:58:32.329Z,34.07
2019-06-26T09:01:01.264Z,34.15
2019-06-26T09:03:30.188Z,34.89
2019-06-26T09:05:59.400Z,35.20
2019-06-26T09:08:28.515Z,34.39
2019-06-26T09:10:57.188Z,34.43
2019-06-26T09:13:26.104Z,35.15
2019-06-26T09:15:54.977Z,34.93
2019-06-26T09:18:34.953Z,35.77
2019-06-26T09:20:52.833Z,35.20
2019-06-26T09:23:21.723Z,35.85
2019-06-26T09:25:50.620Z,35.95
2019-06-26T09:28:19.552Z,36.09
2019-06-26T09:30:48.452Z,36.07
2019-06-26T09:33:17.352Z,36.50
2019-06-26T09:35:46.274Z,36.89
2019-06-26T09:38:15.203Z,37.08
2019-06-26T09:40:44.091Z,37.24
2019-06-26T09:43:13.001Z,37.88
2019-06-26T09:45:41.886Z,38.38
2019-06-26T09:48:10.791Z,38.38
2019-06-26T09:50:39.682Z,38.42
2019-06-26T09:53:08.658Z,38.83
2019-06-26T09:55:37.521Z,39.12
2019-06-26T09:58:06.584Z,38.85
2019-06-26T10:00:35.784Z,39.51
2019-06-26T10:03:05.045Z,39.48
2019-06-26T10:05:34.219Z,39.52
2019-06-26T10:08:03.430Z,39.67
2019-06-26T10:10:32.029Z,39.98
2019-06-26T10:13:00.904Z,39.39
2019-06-26T10:15:29.827Z,39.90
2019-06-26T10:17:58.704Z,40.03
2019-06-26T10:20:27.616Z,40.13
2019-06-26T10:22:56.549Z,39.96
2019-06-26T10:25:25.437Z,40.19
2019-06-26T10:27:54.674Z,39.65
2019-06-26T10:30:23.962Z,39.50
2019-06-26T10:32:52.963Z,40.00
2019-06-26T10:35:22.181Z,39.46
2019-06-26T10:37:51.537Z,39.82
2019-06-26T10:40:20.906Z,40.36
2019-06-26T10:42:50.167Z,40.13
2019-06-26T10:45:19.275Z,40.35
2019-06-26T10:47:50.835Z,40.25
2019-06-26T10:50:17.520Z,40.22
2019-06-26T10:52:51.522Z,39.70
2019-06-26T10:55:22.862Z,39.63
2019-06-26T10:57:50.318Z,39.26
2019-06-26T11:00:19.555Z,39.42
2019-06-26T11:02:48.934Z,40.46
2019-06-26T11:05:18.620Z,38.48
2019-06-26T11:07:50.885Z,38.97
2019-06-26T11:10:17.724Z,39.70
2019-06-26T11:12:49.045Z,38.87
2019-06-26T11:15:16.350Z,38.96
2019-06-26T11:17:51.067Z,38.51
2019-06-26T11:20:20.638Z,38.44
2019-06-26T11:22:51.973Z,38.63
2019-06-26T11:25:19.901Z,38.39
2019-06-26T11:27:48.876Z,37.62
2019-06-26T11:30:21.870Z,37.86
2019-06-26T11:32:50.956Z,37.02
2019-06-26T11:35:22.583Z,37.25
2019-06-26T11:37:52.758Z,37.17
2019-06-26T11:40:24.869Z,36.84
2019-06-26T11:42:54.083Z,37.08
2019-06-26T11:45:28.758Z,36.92
2019-06-26T11:48:01.581Z,37.15
2019-06-26T11:50:31.459Z,38.35
2019-06-26T11:53:00.712Z,37.57
2019-06-26T11:55:30.017Z,37.28
2019-06-26T11:58:01.266Z,37.23
2019-06-26T12:00:32.297Z,36.85
2019-06-26T12:03:03.186Z,36.62
2019-06-26T12:05:32.295Z,36.24
2019-06-26T12:08:01.433Z,35.83
2019-06-26T12:10:30.727Z,35.40
2019-06-26T12:13:03.926Z,34.85
2019-06-26T12:15:34.193Z,34.64
2019-06-26T12:18:01.402Z,34.44
2019-06-26T12:20:30.557Z,34.19
2019-06-26T12:22:59.963Z,34.16
2019-06-26T12:25:31.419Z,34.05
2019-06-26T12:27:58.646Z,33.86
2019-06-26T12:30:29.713Z,33.39
2019-06-26T12:33:03.671Z,33.67
2019-06-26T12:35:35.753Z,33.40
2019-06-26T12:38:05.986Z,33.24
2019-06-26T12:40:35.373Z,32.99
2019-06-26T12:43:04.403Z,32.75
2019-06-26T12:45:33.553Z,32.92
2019-06-26T12:48:03.083Z,32.94
2019-06-26T12:50:35.747Z,32.73
2019-06-26T12:53:03.158Z,32.53
2019-06-26T12:55:33.123Z,32.34
2019-06-26T12:58:12.354Z,32.19
2019-06-26T13:00:31.030Z,32.18
2019-06-26T13:03:00.138Z,32.29
2019-06-26T13:05:29.271Z,32.19
2019-06-26T13:08:00.296Z,31.83
2019-06-26T13:10:29.562Z,31.83
2019-06-26T13:12:58.691Z,31.81
2019-06-26T13:15:27.915Z,31.78
2019-06-26T13:18:01.205Z,31.50
2019-06-26T13:20:26.502Z,31.37
2019-06-26T13:22:55.700Z,31.43
2019-06-26T13:25:24.982Z,31.37
2019-06-26T13:27:54.116Z,31.54
2019-06-26T13:30:27.612Z,31.55
2019-06-26T13:32:57.003Z,31.53
2019-06-26T13:35:29.042Z,31.01
2019-06-26T13:38:00.471Z,31.04
2019-06-26T13:40:31.735Z,30.83
2019-06-26T13:42:59.229Z,30.87
2019-06-26T13:45:28.482Z,30.73
2019-06-26T13:47:58.239Z,30.37
2019-06-26T13:50:27.252Z,30.51
2019-06-26T13:52:56.343Z,30.49
2019-06-26T13:55:26.373Z,30.48
2019-06-26T13:57:55.388Z,30.33
2019-06-26T14:00:24.739Z,30.24
2019-06-26T14:02:54.723Z,30.41
2019-06-26T14:05:29.351Z,30.32
2019-06-26T14:07:56.119Z,30.07
2019-06-26T14:10:29.646Z,30.13
2019-06-26T14:12:58.780Z,29.84
2019-06-26T14:15:28.001Z,29.82
2019-06-26T14:17:57.216Z,29.95
2019-06-26T14:20:26.273Z,30.04
2019-06-26T14:22:55.581Z,30.02
2019-06-26T14:25:24.981Z,30.01
2019-06-26T14:27:54.008Z,29.98
2019-06-26T14:30:23.416Z,29.97
2019-06-26T14:32:54.587Z,30.03
2019-06-26T14:35:23.987Z,30.05
2019-06-26T14:37:52.912Z,30.08
2019-06-26T14:40:25.021Z,30.10
2019-06-26T14:42:56.721Z,30.15
2019-06-26T14:45:25.951Z,30.14
2019-06-26T14:47:55.039Z,30.14
2019-06-26T14:50:24.025Z,30.10
2019-06-26T14:52:53.136Z,30.07
2019-06-26T14:55:24.391Z,30.01
2019-06-26T14:57:56.214Z,30.02
2019-06-26T15:00:25.365Z,30.02
2019-06-26T15:02:54.585Z,29.97
2019-06-26T15:05:23.719Z,30.00
2019-06-26T15:07:55.485Z,30.09
2019-06-26T15:10:24.659Z,30.13
2019-06-26T15:12:54.031Z,30.00
2019-06-26T15:15:23.308Z,29.97
2019-06-26T15:17:52.544Z,29.99
2019-06-26T15:20:21.720Z,29.96
2019-06-26T15:22:51.001Z,29.98
2019-06-26T15:25:20.370Z,30.03
2019-06-26T15:27:49.487Z,30.01
2019-06-26T15:30:18.571Z,29.98
2019-06-26T15:32:47.746Z,29.97
2019-06-26T15:35:17.085Z,29.79
2019-06-26T15:37:49.435Z,29.69
2019-06-26T15:40:18.682Z,29.62
2019-06-26T15:42:49.049Z,29.60
2019-06-26T15:45:20.529Z,29.52
2019-06-26T15:47:48.731Z,29.44
2019-06-26T15:50:17.982Z,29.40
2019-06-26T15:52:46.997Z,29.47
2019-06-26T15:55:16.175Z,29.50
2019-06-26T15:57:47.747Z,29.32
2019-06-26T16:00:16.825Z,29.31
2019-06-26T16:02:45.946Z,29.30
2019-06-26T16:05:17.504Z,29.26
2019-06-26T16:07:51.887Z,29.28
2019-06-26T16:10:23.938Z,29.21
2019-06-26T16:12:53.279Z,29.24
2019-06-26T16:15:28.075Z,29.16
2019-06-26T16:18:03.630Z,29.07
2019-06-26T16:20:35.549Z,29.00
2019-06-26T16:23:04.630Z,29.02
2019-06-26T16:25:33.997Z,29.03
2019-06-26T16:28:05.706Z,29.04
2019-06-26T16:30:34.827Z,28.93
2019-06-26T16:33:07.141Z,28.87
2019-06-26T16:35:36.144Z,28.80
2019-06-26T16:38:05.528Z,28.78
2019-06-26T16:40:34.536Z,28.72
2019-06-26T16:43:03.813Z,28.66
2019-06-26T16:45:32.937Z,28.52
2019-06-26T16:48:02.119Z,28.50
2019-06-26T16:50:31.272Z,28.44
2019-06-26T16:53:00.782Z,28.38
2019-06-26T16:55:29.955Z,28.23
2019-06-26T16:57:58.917Z,28.17
2019-06-26T17:00:30.365Z,28.16
2019-06-26T17:02:59.601Z,28.05
2019-06-26T17:05:31.633Z,27.95
2019-06-26T17:08:00.610Z,27.92
2019-06-26T17:10:29.677Z,27.88
2019-06-26T17:12:58.814Z,27.85
2019-06-26T17:15:28.547Z,27.85
2019-06-26T17:17:59.915Z,27.89
2019-06-26T17:20:28.981Z,27.74
2019-06-26T17:23:05.546Z,27.72
2019-06-26T17:25:27.164Z,27.61
2019-06-26T17:27:56.302Z,27.60
2019-06-26T17:30:25.517Z,27.57
2019-06-26T17:32:54.588Z,27.50
2019-06-26T17:35:23.809Z,27.50
2019-06-26T17:37:53.046Z,27.43
2019-06-26T17:40:22.262Z,27.32
2019-06-26T17:43:08.189Z,27.24
2019-06-26T17:45:23.686Z,27.17
2019-06-26T17:47:53.051Z,27.08
2019-06-26T17:50:22.125Z,27.05
2019-06-26T17:52:51.518Z,26.99
2019-06-26T17:55:20.905Z,26.91
2019-06-26T17:57:50.359Z,26.91
2019-06-26T18:00:20.684Z,26.81
2019-06-26T18:02:49.791Z,26.77
2019-06-26T18:05:21.779Z,26.74
2019-06-26T18:07:50.894Z,26.68
2019-06-26T18:10:20.436Z,26.65
2019-06-26T18:12:49.704Z,26.63
2019-06-26T18:15:23.655Z,26.60
2019-06-26T18:17:51.100Z,26.57
2019-06-26T18:20:20.403Z,26.51
2019-06-26T18:23:02.460Z,26.39
2019-06-26T18:25:21.251Z,26.32
2019-06-26T18:27:50.267Z,26.23
2019-06-26T18:30:22.622Z,26.09
2019-06-26T18:32:48.913Z,26.02
2019-06-26T18:35:18.036Z,25.84
2019-06-26T18:37:53.304Z,25.59
2019-06-26T18:40:22.504Z,25.58
2019-06-26T18:42:51.736Z,25.53
2019-06-26T18:45:23.983Z,25.54
2019-06-26T18:47:53.021Z,25.63
2019-06-26T18:50:22.522Z,25.57
2019-06-26T18:52:51.680Z,25.41
2019-06-26T18:55:20.736Z,25.21
2019-06-26T18:57:49.839Z,25.20
2019-06-26T19:00:18.983Z,25.27
2019-06-26T19:02:48.095Z,25.11
2019-06-26T19:05:17.548Z,25.02
2019-06-26T19:07:46.499Z,24.93
2019-06-26T19:10:18.856Z,24.82
2019-06-26T19:12:49.781Z,24.91
2019-06-26T19:15:21.823Z,24.67
2019-06-26T19:17:51.560Z,24.55
2019-06-26T19:20:20.780Z,24.53
2019-06-26T19:22:49.929Z,24.31
2019-06-26T19:25:21.514Z,24.28
2019-06-26T19:27:50.654Z,24.13
2019-06-26T19:30:19.661Z,24.01
2019-06-26T19:32:51.632Z,23.95
2019-06-26T19:35:20.994Z,23.80
2019-06-26T19:37:50.170Z,23.79
2019-06-26T19:40:19.334Z,23.69
2019-06-26T19:42:48.389Z,23.59
2019-06-26T19:45:17.540Z,23.46
2019-06-26T19:47:46.798Z,23.41
2019-06-26T19:50:15.804Z,23.35
2019-06-26T19:52:45.002Z,23.31
2019-06-26T19:55:14.255Z,23.23
2019-06-26T19:57:43.394Z,23.13
2019-06-26T20:00:14.657Z,23.08
2019-06-26T20:02:44.014Z,22.95
2019-06-26T20:05:16.184Z,22.81
2019-06-26T20:07:45.117Z,22.70
2019-06-26T20:10:14.043Z,22.69
2019-06-26T20:12:42.945Z,22.51
2019-06-26T20:15:11.879Z,22.46
2019-06-26T20:17:40.808Z,22.36
2019-06-26T20:20:09.734Z,22.23
2019-06-26T20:22:38.677Z,22.23
2019-06-26T20:25:07.659Z,22.16
2019-06-26T20:27:36.605Z,22.11
2019-06-26T20:30:09.416Z,22.09
2019-06-26T20:32:34.807Z,21.98
2019-06-26T20:35:03.711Z,21.85
2019-06-26T20:37:32.627Z,21.73
2019-06-26T20:40:01.552Z,21.65
2019-06-26T20:42:30.455Z,21.54
2019-06-26T20:44:59.353Z,21.45
2019-06-26T20:47:28.293Z,21.48
2019-06-26T20:49:57.185Z,21.44
2019-06-26T20:52:26.094Z,21.40
2019-06-26T20:55:01.042Z,21.36
2019-06-26T20:57:23.912Z,21.30
2019-06-26T20:59:52.798Z,21.28
2019-06-26T21:02:21.817Z,21.25
2019-06-26T21:04:50.803Z,21.16
2019-06-26T21:07:19.712Z,21.16
2019-06-26T21:09:48.609Z,20.95
2019-06-26T21:12:17.548Z,20.94
2019-06-26T21:14:46.434Z,20.84
2019-06-26T21:17:15.357Z,20.81
2019-06-26T21:19:44.675Z,20.78
2019-06-26T21:22:13.500Z,20.80
2019-06-26T21:24:42.399Z,20.70
2019-06-26T21:27:11.311Z,20.59
2019-06-26T21:29:40.190Z,20.60
2019-06-26T21:32:09.156Z,20.56
2019-06-26T21:34:38.038Z,20.49
2019-06-26T21:37:07.098Z,20.39
2019-06-26T21:39:35.895Z,20.36
2019-06-26T21:42:04.805Z,20.24
2019-06-26T21:44:33.696Z,20.16
2019-06-26T21:47:02.640Z,19.96
2019-06-26T21:49:31.543Z,19.87
2019-06-26T21:52:00.458Z,19.94
2019-06-26T21:54:29.340Z,19.87
2019-06-26T21:56:58.242Z,19.91
2019-06-26T21:59:27.147Z,19.93
2019-06-26T22:01:56.054Z,19.87
2019-06-26T22:04:24.921Z,19.89
2019-06-26T22:06:53.829Z,19.87
2019-06-26T22:09:22.724Z,19.86
2019-06-26T22:11:51.624Z,19.80
2019-06-26T22:14:20.544Z,19.79
2019-06-26T22:16:49.431Z,19.77
2019-06-26T22:19:18.304Z,19.77
2019-06-26T22:21:47.203Z,19.75
2019-06-26T22:24:16.143Z,19.80
2019-06-26T22:26:45.049Z,19.70
2019-06-26T22:29:13.926Z,19.61
2019-06-26T22:31:42.841Z,19.51
2019-06-26T22:34:11.720Z,19.42
2019-06-26T22:36:51.071Z,19.44
2019-06-26T22:39:09.516Z,19.43
2019-06-26T22:41:38.421Z,19.37
2019-06-26T22:44:07.307Z,19.37
2019-06-26T22:46:36.203Z,19.30
2019-06-26T22:49:05.133Z,19.26
2019-06-26T22:51:34.048Z,19.28
2019-06-26T22:54:02.935Z,19.21
2019-06-26T22:56:31.806Z,19.20
2019-06-26T22:59:00.716Z,19.22
2019-06-26T23:01:29.642Z,19.20
2019-06-26T23:03:58.507Z,19.15
2019-06-26T23:06:27.411Z,19.26
2019-06-26T23:08:56.314Z,19.34
2019-06-26T23:11:25.204Z,19.33
2019-06-26T23:13:54.098Z,19.34
2019-06-26T23:16:23.000Z,19.33
2019-06-26T23:18:51.932Z,19.35
2019-06-26T23:21:20.821Z,19.37
2019-06-26T23:23:49.707Z,19.45
2019-06-26T23:26:24.033Z,19.37
2019-06-26T23:28:47.488Z,19.36
2019-06-26T23:31:16.390Z,19.58
2019-06-26T23:33:45.270Z,19.38
2019-06-26T23:36:14.257Z,19.65
2019-06-26T23:38:43.186Z,19.50
2019-06-26T23:41:12.064Z,19.55
2019-06-26T23:43:40.958Z,19.62
2019-06-26T23:46:09.889Z,19.60
2019-06-26T23:48:38.779Z,19.55
2019-06-26T23:51:07.660Z,19.35
2019-06-26T23:53:36.561Z,19.30
2019-06-26T23:56:05.459Z,19.27
2019-06-26T23:58:34.374Z,19.17
